This is the latest recevied weather packets stored in our database for station/object EA8BQU-10. If no packets are shown the sender has not sent any weather packets the latest 10 day(s).
| Time | Temp. | Humidity | Pressure | Rain* | Wind** | Luminosity | Snow |
|---|---|---|---|---|---|---|---|
| 1777580143 | 20° C | 100% | 1018.9 hPa | - | - | - | - |
| 1777579243 | 20° C | 100% | 1018.7 hPa | - | - | - | - |
| 1777577442 | 20° C | 100% | 1018.3 hPa | - | - | - | - |
| 1777572038 | 20° C | 100% | 1017.8 hPa | - | - | - | - |
| 1777570250 | 20° C | 100% | 1017.6 hPa | - | - | - | - |
| 1777569346 | 20° C | 100% | 1017.5 hPa | - | - | - | - |
| 1777567546 | 20.56° C | 96% | 1017.6 hPa | - | - | - | - |
| 1777566645 | 20.56° C | 97% | 1017.6 hPa | - | - | - | - |
| 1777562142 | 21.67° C | 91% | 1017.4 hPa | - | - | - | - |
| 1777561242 | 21.11° C | 93% | 1017.5 hPa | - | - | - | - |
| 1777558540 | 20.56° C | 96% | 1017.9 hPa | - | - | - | - |
| 1777555839 | 20° C | 97% | 1018 hPa | - | - | - | - |
| 1777554939 | 20° C | 97% | 1018 hPa | - | - | - | - |
| 1777554039 | 20° C | 97% | 1018 hPa | - | - | - | - |
| 1777553138 | 20° C | 97% | 1018.1 hPa | - | - | - | - |
| 1777552238 | 20° C | 97% | 1018 hPa | - | - | - | - |
| 1777551338 | 20° C | 97% | 1018 hPa | - | - | - | - |
| 1777550438 | 20° C | 97% | 1018.1 hPa | - | - | - | - |
| 1777547746 | 20.56° C | 97% | 1018.3 hPa | - | - | - | - |
| 1777546843 | 21.11° C | 95% | 1018.1 hPa | - | - | - | - |
| 1777545943 | 20.56° C | 95% | 1017.9 hPa | - | - | - | - |
| 1777545043 | 20° C | 96% | 1017.7 hPa | - | - | - | - |
| 1777544143 | 20° C | 95% | 1017.7 hPa | - | - | - | - |
| 1777543242 | 20° C | 95% | 1017.8 hPa | - | - | - | - |
| 1777542342 | 20° C | 95% | 1017.8 hPa | - | - | - | - |
* Rain since midnight (hover to see other rain measurements)
** Current wind speed in m/s (hover to see current wind gust speed)